Time;durP1;ratioP1;P1;durP2;ratioP2;P2;SDS_P1;SDS_P2;PMS_P1;PMS_P2;Temp;Humidity;BMP_temperature;BMP_pressure;BME280_temperature;BME280_humidity;BME280_pressure;Samples;Min_cycle;Max_cycle;Signal;HPM_P1;HPM_P2
2023/05/14 00:02:17;;;;;;;11.45;8.80;;;;;;;19.48;45.28;101831.94;5007377;28;124027;-70
2023/05/14 00:04:44;;;;;;;12.35;8.30;;;;;;;19.43;45.44;101828.69;4984736;28;114784;-71
2023/05/14 00:07:11;;;;;;;12.40;9.10;;;;;;;19.41;45.45;101830.59;4982321;28;114125;-70
2023/05/14 00:09:38;;;;;;;9.50;8.50;;;;;;;19.40;45.47;101831.56;4991439;28;123745;-71
2023/05/14 00:12:06;;;;;;;10.23;8.68;;;;;;;19.37;45.42;101826.41;5003978;28;124164;-70
2023/05/14 00:14:33;;;;;;;13.68;8.93;;;;;;;19.35;45.54;101831.03;5008446;28;114065;-71
2023/05/14 00:17:00;;;;;;;12.35;9.07;;;;;;;19.31;45.67;101835.72;5013621;28;114429;-70
2023/05/14 00:19:27;;;;;;;11.02;8.82;;;;;;;19.28;45.72;101835.06;5015502;28;123362;-71
2023/05/14 00:21:54;;;;;;;11.95;8.43;;;;;;;19.22;45.78;101830.97;5013642;28;124469;-71
2023/05/14 00:24:21;;;;;;;12.18;8.32;;;;;;;19.17;45.86;101833.94;5016374;28;115463;-71
2023/05/14 00:26:48;;;;;;;11.02;8.38;;;;;;;19.14;45.83;101827.94;4982719;28;115502;-71
2023/05/14 00:29:15;;;;;;;13.88;9.18;;;;;;;19.09;45.92;101828.22;5002569;28;121792;-71
2023/05/14 00:31:42;;;;;;;15.88;9.80;;;;;;;19.05;45.86;101824.00;5011472;28;124255;-70
2023/05/14 00:34:10;;;;;;;11.73;9.25;;;;;;;19.02;46.25;101824.19;5012825;28;114673;-71
2023/05/14 00:36:37;;;;;;;10.75;8.95;;;;;;;18.99;46.34;101829.78;4994768;28;114080;-73
2023/05/14 00:39:04;;;;;;;14.27;8.65;;;;;;;18.94;46.26;101826.53;5020994;28;124101;-71
2023/05/14 00:41:31;;;;;;;13.73;8.98;;;;;;;18.89;46.34;101817.91;4994500;28;122625;-70
2023/05/14 00:43:58;;;;;;;11.48;8.88;;;;;;;18.87;46.38;101820.69;5013785;28;114116;-71
2023/05/14 00:46:26;;;;;;;12.95;8.63;;;;;;;18.83;46.37;101814.66;4991549;28;113377;-71
2023/05/14 00:48:54;;;;;;;12.18;8.25;;;;;;;18.80;46.62;101825.59;4984495;28;123581;-70
2023/05/14 00:51:21;;;;;;;10.82;8.32;;;;;;;18.74;46.75;101820.59;5011849;28;123601;-70
2023/05/14 00:53:49;;;;;;;10.73;8.68;;;;;;;18.66;46.69;101812.16;5017965;28;114105;-71
2023/05/14 00:56:17;;;;;;;12.40;9.55;;;;;;;18.57;46.92;101802.00;4980336;28;113139;-70
2023/05/14 00:58:44;;;;;;;14.05;9.10;;;;;;;18.52;47.04;101804.16;5000897;28;123109;-71
2023/05/14 01:01:13;;;;;;;14.95;9.85;;;;;;;18.45;47.38;101801.81;4994139;28;123465;-71
2023/05/14 01:03:42;;;;;;;17.13;9.73;;;;;;;18.40;47.39;101806.63;4994060;28;113730;-71
2023/05/14 01:06:16;;;;;;;11.98;9.85;;;;;;;18.36;47.66;101809.59;5016141;28;114220;-71
2023/05/14 01:09:06;;;;;;;11.75;9.25;;;;;;;18.31;47.62;101815.25;5013686;28;124059;-71
2023/05/14 01:11:58;;;;;;;11.23;9.10;;;;;;;18.24;47.44;101805.88;5022345;28;124156;-70
2023/05/14 01:14:42;;;;;;;14.02;9.38;;;;;;;18.18;47.68;101811.63;5001965;28;115401;-71
2023/05/14 01:17:12;;;;;;;14.52;9.82;;;;;;;18.13;47.80;101813.72;5015002;28;115242;-71
2023/05/14 01:19:42;;;;;;;15.40;9.65;;;;;;;18.07;47.77;101807.75;5000523;28;123828;-70
2023/05/14 01:22:10;;;;;;;13.25;9.63;;;;;;;18.03;47.91;101806.22;4993265;28;123886;-71
2023/05/14 01:24:38;;;;;;;16.42;10.65;;;;;;;17.97;47.98;101803.94;4999967;28;114292;-71
2023/05/14 01:27:28;;;;;;;14.50;10.32;;;;;;;17.91;48.13;101815.00;4989417;28;113322;-71
2023/05/14 01:30:24;;;;;;;13.93;10.18;;;;;;;17.85;48.11;101802.84;4982104;28;123182;-70
2023/05/14 01:32:55;;;;;;;16.38;10.52;;;;;;;17.78;48.29;101808.63;4994635;28;123552;-70
2023/05/14 01:35:26;;;;;;;15.65;10.75;;;;;;;17.74;48.64;101796.38;4980367;28;113479;-70
2023/05/14 01:37:59;;;;;;;14.07;10.88;;;;;;;17.71;48.51;101798.28;5000556;28;113069;-71
2023/05/14 01:40:27;;;;;;;15.32;11.48;;;;;;;17.71;48.72;101798.28;5003329;28;123476;-70
2023/05/14 01:42:55;;;;;;;14.63;11.82;;;;;;;17.66;48.79;101800.38;4996114;28;123726;-70
2023/05/14 01:45:23;;;;;;;16.25;11.90;;;;;;;17.61;48.79;101797.13;4993497;28;113481;-70
2023/05/14 01:47:50;;;;;;;16.88;12.20;;;;;;;17.58;48.86;101796.44;4995006;28;114123;-71
2023/05/14 01:50:18;;;;;;;16.80;12.35;;;;;;;17.55;48.99;101799.28;5004618;28;123974;-70
2023/05/14 01:52:45;;;;;;;14.80;12.48;;;;;;;17.54;49.03;101801.09;4981693;28;122995;-71
2023/05/14 01:55:14;;;;;;;16.17;12.88;;;;;;;17.52;49.01;101803.03;5017023;28;114363;-70
2023/05/14 01:57:41;;;;;;;18.90;12.48;;;;;;;17.51;49.32;101795.94;5021724;28;114251;-70
2023/05/14 02:00:08;;;;;;;18.00;12.50;;;;;;;17.49;49.23;101797.84;4999589;28;123226;-70
2023/05/14 02:02:41;;;;;;;14.93;12.75;;;;;;;17.48;49.50;101796.13;5018365;28;124214;-70
2023/05/14 02:05:11;;;;;;;17.23;13.05;;;;;;;17.47;49.40;101789.03;4983264;28;115291;-70
2023/05/14 02:07:39;;;;;;;15.52;12.98;;;;;;;17.46;49.46;101781.94;4997906;28;114544;-71
2023/05/14 02:10:08;;;;;;;20.10;12.90;;;;;;;17.47;49.44;101789.03;5005071;28;124219;-70
2023/05/14 02:12:35;;;;;;;16.20;13.18;;;;;;;17.45;49.88;101785.59;4999425;28;123282;-70
2023/05/14 02:15:03;;;;;;;19.35;13.88;;;;;;;17.44;49.30;101789.19;5008796;28;114171;-70
2023/05/14 02:17:31;;;;;;;23.67;14.40;;;;;;;17.41;49.65;101784.03;4983418;28;113501;-70
2023/05/14 02:19:58;;;;;;;16.45;13.60;;;;;;;17.40;49.68;101782.31;5015160;28;124739;-70
2023/05/14 02:22:25;;;;;;;20.50;13.80;;;;;;;17.39;49.63;101780.59;5014003;28;125245;-70
2023/05/14 02:24:52;;;;;;;22.10;14.55;;;;;;;17.39;49.62;101780.59;5015951;28;114517;-70
2023/05/14 02:27:20;;;;;;;22.35;14.20;;;;;;;17.38;49.71;101790.41;5024935;28;114299;-70
2023/05/14 02:29:47;;;;;;;19.98;14.23;;;;;;;17.35;49.65;101784.38;5005028;28;124034;-70
2023/05/14 02:32:14;;;;;;;22.05;14.80;;;;;;;17.28;49.84;101779.38;5023093;28;124195;-70
2023/05/14 02:34:41;;;;;;;19.27;14.73;;;;;;;17.25;49.92;101784.94;5000030;28;114607;-71
2023/05/14 02:37:08;;;;;;;20.48;15.38;;;;;;;17.25;49.79;101774.25;5024414;28;114447;-70
2023/05/14 02:39:36;;;;;;;18.88;14.32;;;;;;;17.23;49.85;101770.75;4998049;28;123313;-71
2023/05/14 02:42:03;;;;;;;17.20;14.68;;;;;;;17.23;50.12;101773.44;4998610;28;123258;-70
2023/05/14 02:44:31;;;;;;;19.70;14.43;;;;;;;17.21;50.02;101772.66;5001543;28;113197;-70
2023/05/14 02:46:58;;;;;;;19.70;14.60;;;;;;;17.22;50.02;101773.53;5001724;28;112083;-70
2023/05/14 02:49:25;;;;;;;16.77;13.93;;;;;;;17.20;49.93;101775.44;5015592;28;125175;-71
2023/05/14 02:51:55;;;;;;;18.45;14.30;;;;;;;17.18;50.04;101778.22;5004693;28;124949;-70
2023/05/14 02:54:22;;;;;;;18.95;14.07;;;;;;;17.16;50.02;101769.41;4982221;28;114111;-70
2023/05/14 02:56:49;;;;;;;20.75;14.27;;;;;;;17.15;50.11;101773.03;5022166;28;115323;-70
2023/05/14 02:59:17;;;;;;;25.02;14.68;;;;;;;17.13;50.17;101769.59;5003717;28;123274;-71
2023/05/14 03:01:44;;;;;;;16.65;14.85;;;;;;;17.10;50.17;101772.41;4998989;28;123105;-70
2023/05/14 03:04:12;;;;;;;19.55;15.05;;;;;;;17.08;49.90;101771.66;5002625;28;113169;-70
2023/05/14 03:06:39;;;;;;;18.95;15.52;;;;;;;17.04;49.98;101770.09;5020926;28;113920;-70
2023/05/14 03:09:06;;;;;;;21.02;15.07;;;;;;;16.99;50.15;101772.19;5012466;28;124053;-70
2023/05/14 03:11:33;;;;;;;18.23;14.48;;;;;;;16.92;50.12;101775.22;5005740;28;123695;-70
2023/05/14 03:14:01;;;;;;;19.70;14.20;;;;;;;16.88;50.27;101771.00;5020363;28;114490;-70
2023/05/14 03:16:28;;;;;;;21.30;14.35;;;;;;;16.84;50.08;101768.56;5019852;28;114711;-70
2023/05/14 03:18:55;;;;;;;20.52;14.73;;;;;;;16.79;50.28;101766.13;4973651;28;122669;-70
2023/05/14 03:21:22;;;;;;;17.08;14.40;;;;;;;16.74;50.44;101769.06;4986212;28;122935;-70
2023/05/14 03:23:51;;;;;;;19.38;14.85;;;;;;;16.70;50.53;101755.94;4973881;28;113339;-70
2023/05/14 03:26:18;;;;;;;19.23;15.55;;;;;;;16.64;50.39;101756.28;4996820;28;114412;-70
2023/05/14 03:28:45;;;;;;;18.95;14.32;;;;;;;16.60;50.55;101754.75;4998883;28;123690;-70
2023/05/14 03:31:12;;;;;;;18.45;14.50;;;;;;;16.54;50.72;101755.94;4980004;28;123511;-70
2023/05/14 03:33:40;;;;;;;19.20;14.25;;;;;;;16.48;50.50;101754.47;5008495;28;114536;-70
2023/05/14 03:36:07;;;;;;;16.08;13.00;;;;;;;16.42;50.71;101752.13;4991591;28;113889;-70
2023/05/14 03:38:34;;;;;;;16.35;13.95;;;;;;;16.39;50.82;101751.41;4977263;28;124182;-70
2023/05/14 03:41:01;;;;;;;17.48;13.48;;;;;;;16.34;50.76;101751.69;4976661;28;122865;-70
2023/05/14 03:43:28;;;;;;;16.85;14.52;;;;;;;16.30;50.89;101752.81;5008243;28;114146;-70
2023/05/14 03:45:55;;;;;;;17.45;13.77;;;;;;;16.23;50.94;101746.06;4998476;28;114238;-70
2023/05/14 03:48:23;;;;;;;18.25;13.82;;;;;;;16.19;51.15;101744.50;5000981;28;123898;-70
2023/05/14 03:50:50;;;;;;;16.83;13.90;;;;;;;16.14;51.17;101748.28;5001620;28;121952;-70
2023/05/14 03:53:17;;;;;;;16.38;12.82;;;;;;;16.11;51.30;101748.44;5006867;28;114313;-70
2023/05/14 03:55:45;;;;;;;18.70;13.55;;;;;;;16.09;51.29;101745.00;4974396;28;113370;-70
2023/05/14 03:58:13;;;;;;;18.35;14.00;;;;;;;16.05;51.47;101746.13;5024764;28;123916;-71
2023/05/14 04:00:41;;;;;;;22.20;14.60;;;;;;;16.03;51.42;101739.09;4994445;28;123650;-70
2023/05/14 04:03:09;;;;;;;16.75;13.32;;;;;;;16.01;51.51;101747.22;4998032;28;114265;-71
2023/05/14 04:05:37;;;;;;;19.25;13.60;;;;;;;15.99;51.39;101749.09;5009745;28;114439;-70
2023/05/14 04:08:04;;;;;;;22.25;13.90;;;;;;;15.97;51.60;101740.31;4993635;28;123208;-70
2023/05/14 04:10:31;;;;;;;15.82;13.98;;;;;;;15.94;51.67;101745.81;5011585;28;124007;-70
2023/05/14 04:12:59;;;;;;;15.80;13.32;;;;;;;15.91;51.54;101740.63;5014609;28;114454;-70
2023/05/14 04:15:31;;;;;;;18.08;13.20;;;;;;;15.88;51.90;101735.44;4993883;28;113080;-70
2023/05/14 04:17:58;;;;;;;17.75;13.45;;;;;;;15.87;51.68;101744.41;4988717;28;123156;-70
2023/05/14 04:20:26;;;;;;;21.42;14.07;;;;;;;15.86;51.89;101742.69;4997023;28;124246;-70
2023/05/14 04:22:54;;;;;;;17.75;14.77;;;;;;;15.83;51.78;101743.72;4985889;28;113265;-70
2023/05/14 04:25:22;;;;;;;20.17;14.25;;;;;;;15.81;51.93;101750.09;5010357;28;113920;-70
2023/05/14 04:27:49;;;;;;;19.20;15.02;;;;;;;15.77;51.92;101750.25;5006547;28;125046;-70
2023/05/14 04:30:16;;;;;;;19.55;15.35;;;;;;;15.76;52.04;101745.88;5009151;28;123710;-70
2023/05/14 04:32:44;;;;;;;19.95;14.68;;;;;;;15.75;52.28;101752.13;4997526;28;115924;-71
2023/05/14 04:35:11;;;;;;;22.98;15.20;;;;;;;15.74;52.48;101755.72;4994357;28;114961;-70
2023/05/14 04:37:39;;;;;;;20.77;14.43;;;;;;;15.75;52.27;101741.44;4993776;28;124334;-70
2023/05/14 04:40:09;;;;;;;19.85;14.60;;;;;;;15.76;52.54;101753.88;4980019;28;123697;-70
2023/05/14 04:42:37;;;;;;;18.33;13.82;;;;;;;15.77;52.54;101744.91;5014421;28;114316;-71
2023/05/14 04:45:05;;;;;;;20.98;15.23;;;;;;;15.80;52.65;101748.34;4996657;28;113517;-70
2023/05/14 04:47:33;;;;;;;20.33;14.90;;;;;;;15.83;52.79;101753.53;5011088;28;124530;-70
2023/05/14 04:50:00;;;;;;;19.20;15.68;;;;;;;15.86;52.85;101748.03;4978106;28;123445;-71
2023/05/14 04:52:28;;;;;;;18.88;14.07;;;;;;;15.89;52.86;101750.53;5003487;28;113342;-70
2023/05/14 04:54:55;;;;;;;20.63;14.82;;;;;;;15.92;52.71;101758.41;5010058;28;114091;-70
2023/05/14 04:57:22;;;;;;;20.42;14.80;;;;;;;15.95;52.92;101752.88;5013482;28;124443;-70
2023/05/14 04:59:50;;;;;;;17.85;14.43;;;;;;;15.99;52.86;101757.13;4997488;28;122819;-70
2023/05/14 05:02:17;;;;;;;21.40;15.90;;;;;;;16.02;53.20;101759.63;5005140;28;114304;-70
2023/05/14 05:04:45;;;;;;;19.25;15.05;;;;;;;16.04;53.08;101752.41;4982841;28;112783;-70
2023/05/14 05:07:13;;;;;;;20.90;15.13;;;;;;;16.08;53.12;101759.28;4997532;28;125211;-70
2023/05/14 05:09:42;;;;;;;21.38;15.30;;;;;;;16.11;53.35;101751.13;4979011;28;123420;-71
2023/05/14 05:12:09;;;;;;;21.40;15.70;;;;;;;16.14;53.41;101758.09;5013322;27;114522;-71
2023/05/14 05:14:36;;;;;;;22.50;16.67;;;;;;;16.17;53.31;101759.78;4999829;28;113213;-70
2023/05/14 05:17:03;;;;;;;16.90;14.85;;;;;;;16.17;53.31;101765.97;5002502;28;122842;-71
2023/05/14 05:19:30;;;;;;;22.38;15.20;;;;;;;16.17;53.27;101773.13;5002383;28;124688;-70
2023/05/14 05:22:09;;;;;;;22.55;15.57;;;;;;;16.17;53.34;101762.44;4997996;28;115894;-69
2023/05/14 05:24:36;;;;;;;22.58;15.90;;;;;;;16.17;53.44;101767.78;4994479;28;113713;-71
2023/05/14 05:27:04;;;;;;;21.20;15.38;;;;;;;16.17;53.53;101762.44;5018913;28;124020;-69
2023/05/14 05:29:31;;;;;;;20.60;15.25;;;;;;;16.18;53.70;101764.16;5009970;28;124111;-72
2023/05/14 05:31:58;;;;;;;22.63;16.00;;;;;;;16.20;53.72;101763.13;5013838;28;114458;-70
2023/05/14 05:34:26;;;;;;;24.15;16.38;;;;;;;16.21;53.73;101764.00;5019655;28;114335;-70
2023/05/14 05:36:53;;;;;;;21.25;15.90;;;;;;;16.23;53.91;101762.09;5016607;28;123933;-70
2023/05/14 05:39:20;;;;;;;20.92;14.88;;;;;;;16.27;53.86;101760.97;5017213;28;124056;-69
2023/05/14 05:41:47;;;;;;;20.00;15.88;;;;;;;16.31;53.89;101765.22;4983594;28;113625;-70
2023/05/14 05:44:14;;;;;;;22.02;15.98;;;;;;;16.36;54.09;101763.16;5017794;28;114135;-70
2023/05/14 05:46:41;;;;;;;22.30;15.65;;;;;;;16.42;54.02;101760.13;5017415;28;124603;-70
2023/05/14 05:49:08;;;;;;;20.92;15.50;;;;;;;16.48;54.14;101756.25;4998902;28;123698;-70
2023/05/14 05:51:36;;;;;;;23.88;16.98;;;;;;;16.54;54.07;101761.28;4997034;28;114093;-71
2023/05/14 05:54:03;;;;;;;19.65;15.93;;;;;;;16.60;54.16;101760.09;5002534;28;114060;-70
2023/05/14 05:56:30;;;;;;;20.45;15.77;;;;;;;16.65;54.25;101758.00;5013100;28;124141;-70
2023/05/14 05:58:57;;;;;;;20.35;16.27;;;;;;;16.70;54.09;101755.94;4993096;28;123930;-70
2023/05/14 06:01:25;;;;;;;23.05;16.13;;;;;;;16.76;54.21;101760.94;5013522;28;114962;-70
2023/05/14 06:03:52;;;;;;;22.98;16.90;;;;;;;16.80;54.16;101765.19;4992995;28;112311;-70
2023/05/14 06:06:20;;;;;;;21.48;16.15;;;;;;;16.85;54.36;101760.44;5013073;28;124110;-70
2023/05/14 06:08:47;;;;;;;24.65;16.27;;;;;;;16.89;54.15;101767.34;5014690;28;123720;-70
2023/05/14 06:11:15;;;;;;;19.83;16.50;;;;;;;16.92;54.00;101769.84;5029426;28;115511;-70
2023/05/14 06:13:42;;;;;;;22.02;17.17;;;;;;;16.99;54.22;101772.19;5022459;28;114804;-70
2023/05/14 06:16:09;;;;;;;23.95;17.33;;;;;;;17.06;54.04;101773.56;5023408;28;123805;-70
2023/05/14 06:18:37;;;;;;;22.63;16.60;;;;;;;17.14;54.01;101771.31;5021934;28;123015;-70
2023/05/14 06:21:04;;;;;;;25.85;17.42;;;;;;;17.23;54.08;101775.25;4983298;28;113852;-71
2023/05/14 06:23:32;;;;;;;23.23;17.10;;;;;;;17.28;54.04;101774.03;5000313;28;113743;-71
2023/05/14 06:25:59;;;;;;;23.05;17.02;;;;;;;17.38;54.22;101773.50;4998732;28;123999;-70
2023/05/14 06:28:26;;;;;;;22.63;17.10;;;;;;;17.44;54.12;101778.50;5010903;28;123787;-70
2023/05/14 06:30:54;;;;;;;24.05;17.75;;;;;;;17.53;54.09;101777.94;4991749;28;113471;-70
2023/05/14 06:33:28;;;;;;;20.05;16.38;;;;;;;17.64;54.15;101780.00;4988770;28;113633;-70
2023/05/14 06:35:59;;;;;;;21.90;16.90;;;;;;;17.76;54.15;101773.03;4987231;28;124253;-70
2023/05/14 06:38:27;;;;;;;22.75;16.95;;;;;;;17.88;54.29;101783.03;5001476;28;122901;-70
2023/05/14 06:40:54;;;;;;;23.98;17.10;;;;;;;18.01;53.83;101773.28;5018091;28;114020;-70
2023/05/14 06:43:21;;;;;;;23.65;16.98;;;;;;;18.15;53.94;101779.63;5014745;28;113934;-70
2023/05/14 06:45:49;;;;;;;21.13;16.55;;;;;;;18.29;53.91;101776.94;4998900;28;123968;-71
2023/05/14 06:48:17;;;;;;;21.10;16.88;;;;;;;18.42;53.80;101777.91;5020885;28;123817;-71
2023/05/14 06:50:46;;;;;;;21.45;16.23;;;;;;;18.54;53.41;101775.41;5003738;28;114925;-71
2023/05/14 06:53:14;;;;;;;23.70;16.73;;;;;;;18.67;53.51;101769.13;5017011;28;113564;-71
2023/05/14 06:55:41;;;;;;;21.10;15.82;;;;;;;18.80;53.42;101766.56;5010331;28;124617;-71
2023/05/14 06:58:08;;;;;;;21.25;15.95;;;;;;;18.95;53.19;101766.50;5018150;28;122620;-71
2023/05/14 07:00:35;;;;;;;21.80;15.68;;;;;;;19.07;53.28;101763.00;5003002;28;115266;-71
2023/05/14 07:03:03;;;;;;;21.13;16.15;;;;;;;19.22;52.87;101762.00;5003855;28;114477;-71
2023/05/14 07:05:30;;;;;;;23.55;16.17;;;;;;;19.38;52.73;101761.84;5023030;28;123780;-72
2023/05/14 07:07:57;;;;;;;19.80;15.80;;;;;;;19.50;52.60;101764.66;5019448;28;123187;-71
2023/05/14 07:10:25;;;;;;;20.98;16.02;;;;;;;19.57;52.22;101761.44;4996542;28;113761;-71
2023/05/14 07:12:52;;;;;;;20.98;15.48;;;;;;;19.67;52.16;101766.19;5016012;28;113987;-70
2023/05/14 07:15:20;;;;;;;21.77;15.88;;;;;;;19.76;51.87;101771.81;5001521;28;124223;-72
2023/05/14 07:17:47;;;;;;;22.17;15.40;;;;;;;19.84;51.89;101763.22;4992819;28;124050;-71
2023/05/14 07:20:14;;;;;;;19.38;15.65;;;;;;;19.93;51.85;101767.97;5012375;28;114087;-71
2023/05/14 07:22:41;;;;;;;19.40;14.73;;;;;;;20.06;51.60;101762.59;4982075;28;115777;-71
2023/05/14 07:25:09;;;;;;;23.35;16.25;;;;;;;20.16;51.29;101760.09;4998634;28;123213;-71
2023/05/14 07:27:36;;;;;;;18.55;15.80;;;;;;;20.27;51.09;101768.25;4980940;28;122843;-71
2023/05/14 07:30:03;;;;;;;22.33;15.20;;;;;;;20.37;51.13;101761.22;5010392;28;114990;-71
2023/05/14 07:32:31;;;;;;;17.63;14.80;;;;;;;20.47;50.88;101760.56;5013561;28;112916;-71
2023/05/14 07:34:58;;;;;;;18.90;15.00;;;;;;;20.55;50.82;101752.78;5012967;27;123982;-71
2023/05/14 07:37:25;;;;;;;20.67;15.10;;;;;;;20.65;50.53;101753.91;4991416;28;122781;-71
2023/05/14 07:39:52;;;;;;;19.95;15.25;;;;;;;20.70;50.55;101762.50;5012499;28;114363;-71
2023/05/14 07:42:19;;;;;;;18.08;14.70;;;;;;;20.79;50.44;101761.81;5011873;28;114112;-71
2023/05/14 07:45:02;;;;;;;21.48;14.82;;;;;;;20.88;50.00;101759.41;4981760;28;123122;-70
2023/05/14 07:47:29;;;;;;;22.20;15.35;;;;;;;20.95;49.91;101755.28;4985915;28;123695;-71
2023/05/14 07:49:57;;;;;;;18.83;14.73;;;;;;;21.01;49.90;101757.53;4987116;28;115742;-71
2023/05/14 07:52:24;;;;;;;19.60;14.77;;;;;;;21.08;49.66;101764.19;5006981;28;115200;-71
2023/05/14 07:54:51;;;;;;;21.35;15.98;;;;;;;21.16;49.38;101759.06;4986601;28;123346;-71
2023/05/14 07:57:19;;;;;;;17.35;14.98;;;;;;;21.22;49.49;101762.28;4979291;28;124646;-71
2023/05/14 07:59:47;;;;;;;19.15;14.52;;;;;;;21.31;49.36;101761.59;5008995;28;113925;-71
2023/05/14 08:02:15;;;;;;;19.42;14.80;;;;;;;21.39;49.25;101759.16;5006549;28;115098;-72
2023/05/14 08:04:43;;;;;;;17.33;13.75;;;;;;;21.46;48.93;101757.75;5008287;28;124646;-71
2023/05/14 08:07:10;;;;;;;19.42;14.82;;;;;;;21.52;48.72;101754.56;4991313;28;123719;-71
2023/05/14 08:09:37;;;;;;;18.02;15.48;;;;;;;21.62;48.89;101753.88;4991167;28;114328;-71
2023/05/14 08:12:05;;;;;;;16.83;14.45;;;;;;;21.69;48.41;101749.72;5007346;28;114180;-71
2023/05/14 08:14:32;;;;;;;17.15;14.65;;;;;;;21.76;48.39;101756.34;5005166;28;125322;-71
2023/05/14 08:16:59;;;;;;;18.13;14.10;;;;;;;21.84;48.46;101762.00;5007551;28;122723;-71
2023/05/14 08:19:27;;;;;;;18.85;14.52;;;;;;;21.91;48.60;101747.06;5011272;28;116341;-71
2023/05/14 08:21:54;;;;;;;20.48;14.23;;;;;;;22.02;48.49;101756.13;5019159;28;114368;-71
2023/05/14 08:24:21;;;;;;;18.00;14.07;;;;;;;22.11;48.25;101755.41;5008035;28;124649;-72
2023/05/14 08:26:48;;;;;;;16.52;13.80;;;;;;;22.21;48.14;101756.41;5007066;28;123985;-71
2023/05/14 08:29:15;;;;;;;17.42;14.02;;;;;;;22.31;48.00;101752.00;4988805;28;113701;-71
2023/05/14 08:31:43;;;;;;;16.05;14.35;;;;;;;22.41;47.74;101752.13;5000887;28;114061;-71
2023/05/14 08:34:10;;;;;;;18.17;14.13;;;;;;;22.46;47.51;101755.31;4995511;28;123380;-72
2023/05/14 08:36:40;;;;;;;16.35;13.25;;;;;;;22.53;47.11;101745.72;4994991;28;124418;-72
2023/05/14 08:39:07;;;;;;;18.33;13.48;;;;;;;22.60;47.14;101746.06;5004686;28;115268;-71
2023/05/14 08:41:36;;;;;;;15.88;13.25;;;;;;;22.67;46.95;101747.28;5003712;28;115322;-71
2023/05/14 08:44:24;;;;;;;18.58;13.77;;;;;;;22.75;46.93;101743.97;5001438;28;123500;-75
2023/05/14 08:46:53;;;;;;;16.65;13.07;;;;;;;22.83;46.46;101741.50;5005540;28;124630;-71
2023/05/14 08:49:20;;;;;;;17.90;14.05;;;;;;;22.90;46.44;101742.69;5017368;28;114384;-71
2023/05/14 08:51:47;;;;;;;18.52;13.52;;;;;;;22.95;46.04;101742.31;5019960;28;113757;-72
2023/05/14 08:54:16;;;;;;;18.50;14.02;;;;;;;23.01;46.24;101738.25;5014812;28;123857;-72
2023/05/14 08:56:45;;;;;;;17.80;13.65;;;;;;;23.07;46.37;101737.75;4968590;28;122946;-72
2023/05/14 08:59:12;;;;;;;18.98;13.23;;;;;;;23.15;46.17;101739.81;5017248;28;113679;-72
2023/05/14 09:01:46;;;;;;;16.35;13.90;;;;;;;23.21;46.24;101731.19;5014925;28;113882;-71
2023/05/14 09:04:21;;;;;;;19.87;13.43;;;;;;;23.28;45.87;101735.06;4999572;28;122992;-72
2023/05/14 09:06:52;;;;;;;17.02;12.90;;;;;;;23.33;45.59;101739.09;4992436;28;124326;-70
2023/05/14 09:09:21;;;;;;;15.73;12.70;;;;;;;23.41;45.89;101735.75;5001526;28;114488;-72
2023/05/14 09:11:50;;;;;;;17.38;13.73;;;;;;;23.49;45.54;101727.84;4999548;28;114364;-71
2023/05/14 09:14:18;;;;;;;16.00;13.45;;;;;;;23.52;45.14;101732.97;5011234;28;124172;-71
2023/05/14 09:16:47;;;;;;;18.08;13.70;;;;;;;23.54;44.95;101734.69;5001768;28;123768;-71
2023/05/14 09:19:17;;;;;;;16.17;12.68;;;;;;;23.56;44.42;101732.72;5007815;28;114714;-71
2023/05/14 09:21:47;;;;;;;18.25;13.10;;;;;;;23.58;44.66;101726.19;4988566;28;113460;-71
2023/05/14 09:24:22;;;;;;;22.75;14.10;;;;;;;23.64;44.89;101730.19;4999242;28;124988;-71
2023/05/14 09:26:52;;;;;;;17.95;13.23;;;;;;;23.71;44.83;101728.69;4974957;28;123719;-72
2023/05/14 09:29:19;;;;;;;17.98;13.55;;;;;;;23.76;44.79;101729.16;4981958;28;114542;-71
2023/05/14 09:31:50;;;;;;;16.80;13.60;;;;;;;23.80;44.96;101724.38;4997475;28;114837;-76
2023/05/14 09:34:25;;;;;;;18.10;13.27;;;;;;;23.82;44.77;101723.22;4998992;28;124138;-71
2023/05/14 09:37:00;;;;;;;17.17;14.40;;;;;;;23.84;44.40;101714.97;5004369;28;124220;-70
2023/05/14 09:39:28;;;;;;;17.90;13.40;;;;;;;23.88;44.76;101720.00;5007150;28;114141;-72
2023/05/14 09:41:56;;;;;;;19.08;13.15;;;;;;;23.92;44.96;101717.00;5012067;28;114171;-70
2023/05/14 09:44:24;;;;;;;17.33;13.77;;;;;;;23.95;44.40;101717.59;4999839;28;124307;-71
2023/05/14 09:46:52;;;;;;;18.92;13.57;;;;;;;24.00;44.38;101714.50;5002244;28;122978;-71
2023/05/14 09:49:20;;;;;;;19.63;13.60;;;;;;;24.04;44.35;101715.94;4987625;28;114062;-71
2023/05/14 09:51:48;;;;;;;16.13;13.75;;;;;;;24.05;44.00;101706.81;5008466;28;114644;-71
2023/05/14 09:54:15;;;;;;;16.20;12.95;;;;;;;24.07;44.46;101707.53;5004703;28;124202;-70
2023/05/14 09:56:43;;;;;;;17.65;12.77;;;;;;;24.12;44.35;101712.56;5007213;28;124752;-71
2023/05/14 09:59:10;;;;;;;18.08;12.77;;;;;;;24.15;44.55;101702.31;5009544;28;114247;-71
2023/05/14 10:01:41;;;;;;;16.33;13.02;;;;;;;24.24;44.61;101708.75;4991300;28;113445;-74
2023/05/14 10:04:09;;;;;;;18.40;13.25;;;;;;;24.32;44.63;101708.03;4999333;28;124178;-71
2023/05/14 10:06:38;;;;;;;14.93;12.55;;;;;;;24.36;44.12;101704.09;4980590;28;123705;-72
2023/05/14 10:09:17;;;;;;;15.07;12.02;;;;;;;24.41;43.64;101707.22;5002839;28;114151;-71
2023/05/14 10:11:51;;;;;;;14.57;12.52;;;;;;;24.44;43.56;101696.13;4990620;28;113456;-71
2023/05/14 10:14:41;;;;;;;14.77;12.40;;;;;;;24.49;43.47;101701.97;5006275;28;124811;-71
2023/05/14 10:17:16;;;;;;;15.45;12.40;;;;;;;24.57;43.29;101694.03;5008552;28;123810;-72
2023/05/14 10:19:51;;;;;;;17.23;12.55;;;;;;;24.64;43.50;101692.50;5028633;28;115687;-72
2023/05/14 10:22:22;;;;;;;15.25;12.55;;;;;;;24.72;43.53;101694.50;5031910;28;114588;-71
2023/05/14 10:24:51;;;;;;;15.68;12.38;;;;;;;24.80;43.54;101683.78;5034923;28;124708;-71
2023/05/14 10:27:20;;;;;;;15.65;11.90;;;;;;;24.90;43.44;101683.78;5036401;28;124693;-71
2023/05/14 10:29:54;;;;;;;14.10;11.98;;;;;;;24.98;43.35;101689.38;5031891;28;115047;-72
2023/05/14 10:32:24;;;;;;;15.93;10.80;;;;;;;25.04;42.99;101682.53;5026954;28;114341;-71
2023/05/14 10:34:52;;;;;;;13.98;11.70;;;;;;;25.13;42.79;101686.22;5003299;28;122302;-73
2023/05/14 10:37:21;;;;;;;16.95;11.10;;;;;;;25.21;42.46;101672.81;5012261;28;123531;-72
2023/05/14 10:39:58;;;;;;;14.23;11.10;;;;;;;25.24;41.53;101672.53;5008348;28;114269;-71
2023/05/14 10:42:34;;;;;;;11.85;9.77;;;;;;;25.25;41.38;101674.25;4989972;28;114589;-72
2023/05/14 10:45:07;;;;;;;13.93;10.68;;;;;;;25.24;41.04;101668.00;5008062;28;124166;-72
2023/05/14 10:47:39;;;;;;;11.57;9.65;;;;;;;25.29;41.61;101664.81;4991820;28;122721;-72
2023/05/14 10:50:09;;;;;;;13.13;9.50;;;;;;;25.35;41.05;101661.53;5010849;28;115107;-72
2023/05/14 10:52:36;;;;;;;11.75;9.48;;;;;;;25.37;41.11;101656.84;5007155;28;115060;-71
2023/05/14 10:55:09;;;;;;;11.63;9.57;;;;;;;25.43;41.23;101656.25;5008099;28;124538;-73
2023/05/14 10:57:38;;;;;;;9.65;7.88;;;;;;;25.55;41.16;101653.34;4986266;28;124243;-74
2023/05/14 11:00:07;;;;;;;11.20;8.68;;;;;;;25.64;40.07;101655.19;5009236;28;114778;-72
2023/05/14 11:02:40;;;;;;;10.32;8.73;;;;;;;25.66;39.14;101650.47;5002380;28;113934;-73
2023/05/14 11:05:14;;;;;;;11.05;9.07;;;;;;;25.62;39.59;101643.63;5017475;27;124002;-73
2023/05/14 11:07:46;;;;;;;15.68;8.70;;;;;;;25.68;39.57;101643.03;5004106;28;122571;-72
2023/05/14 11:10:15;;;;;;;9.85;7.50;;;;;;;25.78;40.70;101643.84;5005639;28;115661;-73